Terminal Aerodrome Forecast
Issued by NWS

Home | Current Version | Previous Version | Text Only | Print | Product List | Glossary On
Versions: 1 2 3 4 5 6 7 8 9 10 11 12 13
000
FTUS46 KLOX 311733
TAFPMD
TAF
KPMD 311733Z 3118/0118 00000KT P6SM SKC
     FM311900 26012KT P6SM SKC
     FM312200 25017G25KT P6SM SKC
     FM010300 25012KT P6SM SKC
     FM010600 22006KT P6SM SKC=

USA.gov is the U.S. government's official web portal to all federal, state and local government web resources and services.